Winnemucca, Nevada
Current Conditions -  °F | °C
As of 9:56 PM on Saturday 20 Dec 2014 (Local Time) from KWMC Reporting Station
Overcast Overcast  
Wind Chill: 32°   Ceiling: 3900
Heat Index: 40°   Visibility: 10mi
Dew Point: 38°   Wind: 14mph
Humidity: 93%   Direction: 190°S
Pressure: 30.1"   Gusts: NA
Location:  40.97°N, 117.73°W
Report Text: KWMC 210556Z AUTO 19012KT 10SM OVC039 04/03 A3010 RMK AO2 SLP192 60004 T00440033 10050 20022 51004
Loading
Personal Weather Stations






























Interactive Weather Map New forecast layout! Learn more

10-Day Weather Forecast

Advertisements
Track Severe Weather on mobile